createdAt,value
2023-03-22T00:01:31.261Z,13.30
2023-03-22T00:05:33.164Z,13.30
2023-03-22T00:09:34.925Z,13.30
2023-03-22T00:13:39.890Z,13.20
2023-03-22T00:17:42.477Z,13.10
2023-03-22T00:21:44.853Z,13.00
2023-03-22T00:25:47.102Z,12.90
2023-03-22T00:29:48.970Z,13.00
2023-03-22T00:33:50.870Z,12.90
2023-03-22T00:37:52.810Z,12.90
2023-03-22T00:41:54.759Z,12.80
2023-03-22T00:45:56.622Z,12.80
2023-03-22T00:49:58.578Z,12.80
2023-03-22T00:54:00.804Z,12.80
2023-03-22T00:58:02.592Z,12.70
2023-03-22T01:02:05.607Z,12.60
2023-03-22T01:06:08.425Z,12.60
2023-03-22T01:10:11.422Z,12.50
2023-03-22T01:14:13.972Z,12.50
2023-03-22T01:18:15.938Z,12.40
2023-03-22T01:22:17.744Z,12.30
2023-03-22T01:26:19.572Z,12.30
2023-03-22T01:30:22.527Z,12.20
2023-03-22T01:34:24.420Z,12.10
2023-03-22T01:38:26.430Z,12.00
2023-03-22T01:42:28.541Z,11.80
2023-03-22T01:46:30.535Z,11.70
2023-03-22T01:50:32.534Z,11.70
2023-03-22T01:54:42.899Z,11.60
2023-03-22T01:58:44.702Z,11.50
2023-03-22T02:02:49.365Z,11.40
2023-03-22T02:06:54.425Z,11.30
2023-03-22T02:10:56.241Z,11.30
2023-03-22T02:15:27.932Z,11.20
2023-03-22T02:19:45.649Z,11.20
2023-03-22T02:25:00.590Z,11.10
2023-03-22T02:29:13.958Z,11.10
2023-03-22T02:33:35.866Z,11.00
2023-03-22T02:37:59.230Z,10.90
2023-03-22T02:42:17.526Z,10.80
2023-03-22T02:46:37.859Z,10.70
2023-03-22T02:50:46.598Z,10.60
2023-03-22T02:54:56.226Z,10.50
2023-03-22T02:59:01.191Z,10.40
2023-03-22T03:03:21.861Z,10.30
2023-03-22T03:07:32.782Z,10.20
2023-03-22T03:11:40.845Z,10.20
2023-03-22T03:16:03.149Z,10.10
2023-03-22T03:20:55.765Z,10.10
2023-03-22T03:25:19.788Z,10.00
2023-03-22T03:29:36.075Z,9.90
2023-03-22T03:33:44.237Z,9.90
2023-03-22T03:37:49.588Z,9.80
2023-03-22T03:41:51.518Z,9.80
2023-03-22T03:45:54.845Z,9.80
2023-03-22T03:49:56.965Z,9.70
2023-03-22T03:53:58.886Z,9.70
2023-03-22T03:58:00.775Z,9.80
2023-03-22T04:02:02.747Z,9.70
2023-03-22T04:06:05.068Z,9.80
2023-03-22T04:10:07.854Z,9.80
2023-03-22T04:14:09.769Z,9.80
2023-03-22T04:18:11.580Z,9.70
2023-03-22T04:22:14.890Z,9.80
2023-03-22T04:26:16.784Z,9.80
2023-03-22T04:30:23.044Z,9.70
2023-03-22T04:34:24.858Z,9.80
2023-03-22T04:38:26.667Z,9.80
2023-03-22T04:42:28.715Z,9.80
2023-03-22T04:46:31.511Z,9.80
2023-03-22T04:50:33.482Z,9.90
2023-03-22T04:54:35.356Z,9.80
2023-03-22T04:58:42.131Z,9.80
2023-03-22T05:02:44.158Z,9.80
2023-03-22T05:06:46.616Z,9.80
2023-03-22T05:10:52.456Z,9.80
2023-03-22T05:14:59.836Z,9.80
2023-03-22T05:19:02.528Z,9.80
2023-03-22T05:23:07.174Z,9.80
2023-03-22T05:27:11.058Z,9.90
2023-03-22T05:31:15.704Z,9.90
2023-03-22T05:35:20.816Z,10.10
2023-03-22T05:39:25.566Z,10.20
2023-03-22T05:43:29.972Z,10.40
2023-03-22T05:47:31.899Z,10.90
2023-03-22T05:51:35.255Z,11.60
2023-03-22T05:55:59.056Z,12.00
2023-03-22T06:00:01.936Z,12.30
2023-03-22T06:04:10.133Z,12.70
2023-03-22T06:08:18.467Z,12.50
2023-03-22T06:12:40.590Z,12.40
2023-03-22T06:16:43.156Z,12.50
2023-03-22T06:20:45.034Z,12.40
2023-03-22T06:24:47.748Z,12.20
2023-03-22T06:28:49.610Z,12.20
2023-03-22T06:32:51.607Z,12.30
2023-03-22T06:36:53.589Z,12.50
2023-03-22T06:40:55.669Z,12.70
2023-03-22T06:44:57.854Z,12.80
2023-03-22T06:48:59.792Z,12.90
2023-03-22T06:53:01.698Z,13.00
2023-03-22T06:57:04.006Z,13.10
2023-03-22T07:01:06.210Z,13.20
2023-03-22T07:05:08.731Z,13.30
2023-03-22T07:09:10.730Z,13.40
2023-03-22T07:13:12.594Z,13.50
2023-03-22T07:17:14.482Z,13.60
2023-03-22T07:21:16.374Z,13.70
2023-03-22T07:25:20.963Z,13.70
2023-03-22T07:29:37.724Z,13.80
2023-03-22T07:33:42.494Z,14.00
2023-03-22T07:37:45.019Z,14.40
2023-03-22T07:41:47.119Z,14.70
2023-03-22T07:45:50.013Z,15.00
2023-03-22T07:49:51.813Z,15.40
2023-03-22T07:53:53.666Z,16.10
2023-03-22T07:57:56.462Z,16.60
2023-03-22T08:01:58.473Z,17.00
2023-03-22T08:06:06.545Z,17.30
2023-03-22T08:10:09.169Z,17.60
2023-03-22T08:14:11.285Z,17.90
2023-03-22T08:18:13.292Z,18.50
2023-03-22T08:22:15.485Z,18.30
2023-03-22T08:26:17.939Z,17.90
2023-03-22T08:30:22.431Z,18.20
2023-03-22T08:34:24.452Z,18.30
2023-03-22T08:38:26.319Z,18.50
2023-03-22T08:42:28.252Z,18.50
2023-03-22T08:46:30.138Z,18.80
2023-03-22T08:50:34.566Z,19.20
2023-03-22T08:54:41.675Z,19.20
2023-03-22T08:58:46.717Z,19.00
2023-03-22T09:02:51.274Z,19.10
2023-03-22T09:06:53.088Z,19.00
2023-03-22T09:10:55.079Z,18.80
2023-03-22T09:14:57.056Z,18.90
2023-03-22T09:18:58.937Z,19.10
2023-03-22T09:23:00.729Z,19.10
2023-03-22T09:27:03.408Z,19.20
2023-03-22T09:31:08.073Z,19.30
2023-03-22T09:35:10.107Z,19.50
2023-03-22T09:39:12.959Z,19.50
2023-03-22T09:43:14.739Z,19.50
2023-03-22T09:47:43.856Z,19.50
2023-03-22T09:51:51.084Z,19.80
2023-03-22T09:56:06.297Z,19.90
2023-03-22T10:00:22.287Z,19.80
2023-03-22T10:04:30.124Z,19.90
2023-03-22T10:09:00.248Z,19.90
2023-03-22T10:13:48.422Z,19.30
2023-03-22T10:17:53.645Z,19.00
2023-03-22T10:21:55.870Z,19.10
2023-03-22T10:26:01.153Z,18.90
2023-03-22T10:30:28.358Z,19.00
2023-03-22T10:34:33.956Z,19.00
2023-03-22T10:38:44.956Z,19.20
2023-03-22T10:42:54.456Z,19.50
2023-03-22T10:46:57.303Z,19.40
2023-03-22T10:51:04.830Z,19.70
2023-03-22T10:55:11.855Z,19.50
2023-03-22T10:59:43.504Z,19.50
2023-03-22T11:03:52.060Z,19.50
2023-03-22T11:07:54.094Z,19.70
2023-03-22T11:12:00.137Z,20.00
2023-03-22T11:16:02.668Z,20.10
2023-03-22T11:20:12.364Z,19.90
2023-03-22T11:24:16.542Z,19.90
2023-03-22T11:28:26.916Z,19.90
2023-03-22T11:32:32.908Z,20.00
2023-03-22T11:36:43.890Z,20.10
2023-03-22T11:40:52.769Z,20.10
2023-03-22T11:44:55.593Z,20.20
2023-03-22T11:49:03.366Z,20.20
2023-03-22T11:53:08.967Z,20.20
2023-03-22T11:57:17.497Z,20.20
2023-03-22T12:01:58.648Z,20.30
2023-03-22T12:06:05.903Z,20.30
2023-03-22T12:10:21.812Z,20.30
2023-03-22T12:14:41.216Z,20.40
2023-03-22T12:19:36.652Z,20.60
2023-03-22T12:23:38.615Z,20.50
2023-03-22T12:27:43.107Z,20.40
2023-03-22T12:32:08.672Z,20.60
2023-03-22T12:36:13.903Z,20.50
2023-03-22T12:40:28.699Z,20.50
2023-03-22T12:44:38.441Z,20.50
2023-03-22T12:48:53.318Z,20.60
2023-03-22T12:52:57.052Z,20.50
2023-03-22T12:56:59.132Z,20.40
2023-03-22T13:01:19.643Z,20.20
2023-03-22T13:05:21.840Z,20.40
2023-03-22T13:09:29.475Z,20.70
2023-03-22T13:13:49.490Z,20.80
2023-03-22T13:17:51.419Z,20.80
2023-03-22T13:22:17.959Z,20.80
2023-03-22T13:26:20.284Z,20.80
2023-03-22T13:30:32.799Z,20.70
2023-03-22T13:34:49.221Z,20.70
2023-03-22T13:39:04.739Z,20.50
2023-03-22T13:43:27.811Z,20.60
2023-03-22T13:47:43.182Z,20.60
2023-03-22T13:51:45.478Z,20.60
2023-03-22T13:55:58.921Z,20.60
2023-03-22T14:00:22.368Z,20.60
2023-03-22T14:04:30.290Z,20.60
2023-03-22T14:08:36.111Z,20.70
2023-03-22T14:13:21.224Z,20.60
2023-03-22T14:17:41.225Z,20.50
